Terminal Aerodrome Forecast
Issued by NWS Tuscon, AZ

Home | Current Version | Previous Version | Text Only | Print | Product List | Glossary On
Versions: 1 2 3 4 5 6 7 8 9 10 11 12 13
000
FTUS45 KTWC 290500
TAFDUG
TAF
KDUG 290536Z 2906/3006 35006KT P6SM SCT140 OVC250
     FM291000 VRB04KT P6SM BKN120 OVC180
     FM291700 14011G18KT P6SM BKN080 OVC130
     FM300200 11015G27KT P6SM BKN050 OVC090=

USA.gov is the U.S. government's official web portal to all federal, state and local government web resources and services.